Pagrindinis puslapis
METAR-TAF:

METAR-TAF

Oro uostai :

Širazas, Iranas

platuma: 29-32N, ilguma: 052-35E, Aukštis: 1486 m

Dabartinis oras

Ataskaita buvo paskelbta 23 minutes, ne 12:30 UTC
Vėjas 4 kt iš Rytų/Pietryčių
Temperatūra 20°C
Drėgmė 23%
Slėgis 1017 hPa
Matomumas 10 km arba daugiau
nėra debesų žemiau 1500 m ir nėra kamuolinių lietaus debesų

METAR: OISS 281230Z 11004KT CAVOK 20/M02 Q1017 A3004

Laikas: 16:23 (12:53 UTC)

Prognozė

Ataskaita buvo paskelbta 1 valandą ir 3 minutes, ne 11:50 UTC
Prognozė galioja nuo 28 metu 12 UTC su 29 metu 18 UTC
Vėjas 8 kt iš Rytų/Šiaurės Rytų
Matomumas: 8000 m

TAF: OISS 281150Z 2812/2918 06008KT 8000 NSC

Orai ataskaitas ir orų prognozės (METAR, TAF).

turimą stotys yra geltonos ir raudonos taškus žemėlapyje.

Perkelti pele per norėdami pamatyti stoties vardą.

Tada spustelėkite, norėdami matyti oro stebėjimo ir prognozės.

Norėdami pakeisti žemėlapį: spustelėkite ant žalios mygtukų su juodo kryžiaus žemyn,; žalią mygtuką su brūkšneliu, jei norite nutolinti; arba žalių rodyklių gretimoms žemėlapius.


METAR-TAF: